sensor_id;sensor_type;location;lat;lon;timestamp;temperature;humidity
2935;DHT22;2462;51.456;7.248;2022-12-18T00:01:46;-2.60;99.90
2935;DHT22;2462;51.456;7.248;2022-12-18T00:04:21;-2.60;99.90
2935;DHT22;2462;51.456;7.248;2022-12-18T00:06:47;-2.60;99.90
2935;DHT22;2462;51.456;7.248;2022-12-18T00:09:13;-2.60;99.90
2935;DHT22;2462;51.456;7.248;2022-12-18T00:11:38;-2.60;99.90
2935;DHT22;2462;51.456;7.248;2022-12-18T00:14:04;-2.60;99.90
2935;DHT22;2462;51.456;7.248;2022-12-18T00:16:30;-2.60;99.90
2935;DHT22;2462;51.456;7.248;2022-12-18T00:18:58;-2.60;99.90
2935;DHT22;2462;51.456;7.248;2022-12-18T00:21:25;-2.60;99.90
2935;DHT22;2462;51.456;7.248;2022-12-18T00:23:51;-2.60;99.90
2935;DHT22;2462;51.456;7.248;2022-12-18T00:26:19;-2.60;99.90
2935;DHT22;2462;51.456;7.248;2022-12-18T00:28:45;-2.60;99.90
2935;DHT22;2462;51.456;7.248;2022-12-18T00:31:14;-2.60;99.90
2935;DHT22;2462;51.456;7.248;2022-12-18T00:33:39;-2.60;99.90
2935;DHT22;2462;51.456;7.248;2022-12-18T00:36:07;-2.60;99.90
2935;DHT22;2462;51.456;7.248;2022-12-18T00:38:35;-2.60;99.90
2935;DHT22;2462;51.456;7.248;2022-12-18T00:41:00;-2.60;99.90
2935;DHT22;2462;51.456;7.248;2022-12-18T00:43:26;-2.60;99.90
2935;DHT22;2462;51.456;7.248;2022-12-18T00:45:52;-2.50;99.90
2935;DHT22;2462;51.456;7.248;2022-12-18T00:48:18;-2.60;99.90
2935;DHT22;2462;51.456;7.248;2022-12-18T00:50:43;-2.60;99.90
2935;DHT22;2462;51.456;7.248;2022-12-18T00:53:09;-2.60;99.90
2935;DHT22;2462;51.456;7.248;2022-12-18T00:55:34;-2.60;99.90
2935;DHT22;2462;51.456;7.248;2022-12-18T00:58:00;-2.60;99.90
2935;DHT22;2462;51.456;7.248;2022-12-18T01:00:25;-2.70;99.90
2935;DHT22;2462;51.456;7.248;2022-12-18T01:02:51;-2.60;99.90
2935;DHT22;2462;51.456;7.248;2022-12-18T01:05:17;-2.60;99.90
2935;DHT22;2462;51.456;7.248;2022-12-18T01:07:42;-2.60;99.90
2935;DHT22;2462;51.456;7.248;2022-12-18T01:10:09;-2.60;99.90
2935;DHT22;2462;51.456;7.248;2022-12-18T01:12:36;-2.60;99.90
2935;DHT22;2462;51.456;7.248;2022-12-18T01:15:02;-2.60;99.90
2935;DHT22;2462;51.456;7.248;2022-12-18T01:17:28;-2.70;99.90
2935;DHT22;2462;51.456;7.248;2022-12-18T01:19:53;-2.60;99.90
2935;DHT22;2462;51.456;7.248;2022-12-18T01:22:19;-2.60;99.90
2935;DHT22;2462;51.456;7.248;2022-12-18T01:24:44;-2.60;99.90
2935;DHT22;2462;51.456;7.248;2022-12-18T01:27:10;-2.60;99.90
2935;DHT22;2462;51.456;7.248;2022-12-18T01:29:35;-2.60;99.90
2935;DHT22;2462;51.456;7.248;2022-12-18T01:32:01;-2.60;99.90
2935;DHT22;2462;51.456;7.248;2022-12-18T01:34:26;-2.60;99.90
2935;DHT22;2462;51.456;7.248;2022-12-18T01:36:52;-2.60;99.90
2935;DHT22;2462;51.456;7.248;2022-12-18T01:39:18;-2.70;99.90
2935;DHT22;2462;51.456;7.248;2022-12-18T01:41:44;-2.70;99.90
2935;DHT22;2462;51.456;7.248;2022-12-18T01:47:36;-2.70;99.90
2935;DHT22;2462;51.456;7.248;2022-12-18T01:50:18;-2.70;99.90
2935;DHT22;2462;51.456;7.248;2022-12-18T01:52:51;-2.60;99.90
2935;DHT22;2462;51.456;7.248;2022-12-18T01:55:20;-2.70;99.90
2935;DHT22;2462;51.456;7.248;2022-12-18T01:57:47;-2.70;99.90
2935;DHT22;2462;51.456;7.248;2022-12-18T02:00:17;-2.70;99.90
2935;DHT22;2462;51.456;7.248;2022-12-18T02:02:44;-2.70;99.90
2935;DHT22;2462;51.456;7.248;2022-12-18T02:05:12;-2.70;99.90
2935;DHT22;2462;51.456;7.248;2022-12-18T02:10:48;-2.70;99.90
2935;DHT22;2462;51.456;7.248;2022-12-18T02:19:01;-2.70;99.90
2935;DHT22;2462;51.456;7.248;2022-12-18T02:21:51;-2.70;99.90
2935;DHT22;2462;51.456;7.248;2022-12-18T02:26:56;-2.70;99.90
2935;DHT22;2462;51.456;7.248;2022-12-18T02:29:31;-2.70;99.90
2935;DHT22;2462;51.456;7.248;2022-12-18T02:31:58;-2.70;99.90
2935;DHT22;2462;51.456;7.248;2022-12-18T02:34:28;-2.70;99.90
2935;DHT22;2462;51.456;7.248;2022-12-18T02:36:55;-2.70;99.90
2935;DHT22;2462;51.456;7.248;2022-12-18T02:39:25;-2.70;99.90
2935;DHT22;2462;51.456;7.248;2022-12-18T02:41:52;-2.70;99.90
2935;DHT22;2462;51.456;7.248;2022-12-18T02:44:17;-2.70;99.90
2935;DHT22;2462;51.456;7.248;2022-12-18T02:46:46;-2.70;99.90
2935;DHT22;2462;51.456;7.248;2022-12-18T02:52:03;-2.70;99.90
2935;DHT22;2462;51.456;7.248;2022-12-18T02:54:47;-2.70;99.90
2935;DHT22;2462;51.456;7.248;2022-12-18T02:57:26;-2.70;99.90
2935;DHT22;2462;51.456;7.248;2022-12-18T03:00:16;-2.70;99.90
2935;DHT22;2462;51.456;7.248;2022-12-18T03:02:55;-2.70;99.90
2935;DHT22;2462;51.456;7.248;2022-12-18T03:05:30;-2.70;99.90
2935;DHT22;2462;51.456;7.248;2022-12-18T03:08:06;-2.70;99.90
2935;DHT22;2462;51.456;7.248;2022-12-18T03:10:35;-2.70;99.90
2935;DHT22;2462;51.456;7.248;2022-12-18T03:13:07;-2.70;99.90
2935;DHT22;2462;51.456;7.248;2022-12-18T03:15:53;-2.70;99.90
2935;DHT22;2462;51.456;7.248;2022-12-18T03:21:01;-2.70;99.90
2935;DHT22;2462;51.456;7.248;2022-12-18T03:23:32;-2.70;99.90
2935;DHT22;2462;51.456;7.248;2022-12-18T03:26:05;-2.70;99.90
2935;DHT22;2462;51.456;7.248;2022-12-18T03:28:35;-2.70;99.90
2935;DHT22;2462;51.456;7.248;2022-12-18T03:31:04;-2.70;99.90
2935;DHT22;2462;51.456;7.248;2022-12-18T03:33:37;-2.70;99.90
2935;DHT22;2462;51.456;7.248;2022-12-18T03:36:05;-2.70;99.90
2935;DHT22;2462;51.456;7.248;2022-12-18T03:38:30;-2.70;99.90
2935;DHT22;2462;51.456;7.248;2022-12-18T03:41:20;-2.70;99.90
2935;DHT22;2462;51.456;7.248;2022-12-18T03:44:13;-2.70;99.90
2935;DHT22;2462;51.456;7.248;2022-12-18T03:49:57;-2.70;99.90
2935;DHT22;2462;51.456;7.248;2022-12-18T03:52:36;-2.70;99.90
2935;DHT22;2462;51.456;7.248;2022-12-18T03:55:05;-2.70;99.90
2935;DHT22;2462;51.456;7.248;2022-12-18T03:57:32;-2.70;99.90
2935;DHT22;2462;51.456;7.248;2022-12-18T04:00:06;-2.70;99.90
2935;DHT22;2462;51.456;7.248;2022-12-18T04:02:34;-2.70;99.90
2935;DHT22;2462;51.456;7.248;2022-12-18T04:05:03;-2.70;99.90
2935;DHT22;2462;51.456;7.248;2022-12-18T04:07:30;-2.70;99.90
2935;DHT22;2462;51.456;7.248;2022-12-18T04:09:58;-2.70;99.90
2935;DHT22;2462;51.456;7.248;2022-12-18T04:12:26;-2.70;99.90
2935;DHT22;2462;51.456;7.248;2022-12-18T04:14:53;-2.70;99.90
2935;DHT22;2462;51.456;7.248;2022-12-18T04:17:19;-2.70;99.90
2935;DHT22;2462;51.456;7.248;2022-12-18T04:19:45;-2.70;99.90
2935;DHT22;2462;51.456;7.248;2022-12-18T04:22:11;-2.70;99.90
2935;DHT22;2462;51.456;7.248;2022-12-18T04:24:36;-2.70;99.90
2935;DHT22;2462;51.456;7.248;2022-12-18T04:27:02;-2.70;99.90
2935;DHT22;2462;51.456;7.248;2022-12-18T04:29:28;-2.70;99.90
2935;DHT22;2462;51.456;7.248;2022-12-18T04:31:54;-2.70;99.90
2935;DHT22;2462;51.456;7.248;2022-12-18T04:34:19;-2.60;99.90
2935;DHT22;2462;51.456;7.248;2022-12-18T04:36:45;-2.70;99.90
2935;DHT22;2462;51.456;7.248;2022-12-18T04:39:11;-2.60;99.90
2935;DHT22;2462;51.456;7.248;2022-12-18T04:41:37;-2.70;99.90
2935;DHT22;2462;51.456;7.248;2022-12-18T04:44:02;-2.70;99.90
2935;DHT22;2462;51.456;7.248;2022-12-18T04:46:28;-2.60;99.90
2935;DHT22;2462;51.456;7.248;2022-12-18T04:48:54;-2.70;99.90
2935;DHT22;2462;51.456;7.248;2022-12-18T04:51:19;-2.60;99.90
2935;DHT22;2462;51.456;7.248;2022-12-18T04:53:45;-2.60;99.90
2935;DHT22;2462;51.456;7.248;2022-12-18T04:56:13;-2.60;99.90
2935;DHT22;2462;51.456;7.248;2022-12-18T04:58:40;-2.60;99.90
2935;DHT22;2462;51.456;7.248;2022-12-18T05:01:06;-2.60;99.90
2935;DHT22;2462;51.456;7.248;2022-12-18T05:03:33;-2.60;99.90
2935;DHT22;2462;51.456;7.248;2022-12-18T05:06:00;-2.60;99.90
2935;DHT22;2462;51.456;7.248;2022-12-18T05:08:25;-2.60;99.90
2935;DHT22;2462;51.456;7.248;2022-12-18T05:11:06;-2.60;99.90
2935;DHT22;2462;51.456;7.248;2022-12-18T05:13:32;-2.60;99.90
2935;DHT22;2462;51.456;7.248;2022-12-18T05:15:57;-2.60;99.90
2935;DHT22;2462;51.456;7.248;2022-12-18T05:18:23;-2.60;99.90
2935;DHT22;2462;51.456;7.248;2022-12-18T05:20:53;-2.60;99.90
2935;DHT22;2462;51.456;7.248;2022-12-18T05:23:19;-2.60;99.90
2935;DHT22;2462;51.456;7.248;2022-12-18T05:25:53;-2.60;99.90
2935;DHT22;2462;51.456;7.248;2022-12-18T05:28:19;-2.60;99.90
2935;DHT22;2462;51.456;7.248;2022-12-18T05:30:50;-2.60;99.90
2935;DHT22;2462;51.456;7.248;2022-12-18T05:33:17;-2.60;99.90
2935;DHT22;2462;51.456;7.248;2022-12-18T05:35:43;-2.60;99.90
2935;DHT22;2462;51.456;7.248;2022-12-18T05:38:09;-2.60;99.90
2935;DHT22;2462;51.456;7.248;2022-12-18T05:40:35;-2.60;99.90
2935;DHT22;2462;51.456;7.248;2022-12-18T05:43:01;-2.60;99.90
2935;DHT22;2462;51.456;7.248;2022-12-18T05:45:27;-2.60;99.90
2935;DHT22;2462;51.456;7.248;2022-12-18T05:47:53;-2.60;99.90
2935;DHT22;2462;51.456;7.248;2022-12-18T05:50:18;-2.60;99.90
2935;DHT22;2462;51.456;7.248;2022-12-18T05:52:44;-2.60;99.90
2935;DHT22;2462;51.456;7.248;2022-12-18T05:55:09;-2.60;99.90
2935;DHT22;2462;51.456;7.248;2022-12-18T05:57:35;-2.60;99.90
2935;DHT22;2462;51.456;7.248;2022-12-18T06:00:00;-2.60;99.90
2935;DHT22;2462;51.456;7.248;2022-12-18T06:02:26;-2.60;99.90
2935;DHT22;2462;51.456;7.248;2022-12-18T06:04:51;-2.60;99.90
2935;DHT22;2462;51.456;7.248;2022-12-18T06:07:17;-2.70;99.90
2935;DHT22;2462;51.456;7.248;2022-12-18T06:09:42;-2.60;99.90
2935;DHT22;2462;51.456;7.248;2022-12-18T06:12:08;-2.60;99.90
2935;DHT22;2462;51.456;7.248;2022-12-18T06:14:34;-2.70;99.90
2935;DHT22;2462;51.456;7.248;2022-12-18T06:16:59;-2.70;99.90
2935;DHT22;2462;51.456;7.248;2022-12-18T06:19:25;-2.70;99.90
2935;DHT22;2462;51.456;7.248;2022-12-18T06:21:51;-2.70;99.90
2935;DHT22;2462;51.456;7.248;2022-12-18T06:24:16;-2.60;99.90
2935;DHT22;2462;51.456;7.248;2022-12-18T06:26:42;-2.70;99.90
2935;DHT22;2462;51.456;7.248;2022-12-18T06:29:07;-2.60;99.90
2935;DHT22;2462;51.456;7.248;2022-12-18T06:31:33;-2.60;99.90
2935;DHT22;2462;51.456;7.248;2022-12-18T06:33:59;-2.70;99.90
2935;DHT22;2462;51.456;7.248;2022-12-18T06:36:24;-2.70;99.90
2935;DHT22;2462;51.456;7.248;2022-12-18T06:38:50;-2.70;99.90
2935;DHT22;2462;51.456;7.248;2022-12-18T06:41:18;-2.70;99.90
2935;DHT22;2462;51.456;7.248;2022-12-18T06:43:44;-2.70;99.90
2935;DHT22;2462;51.456;7.248;2022-12-18T06:46:10;-2.70;99.90
2935;DHT22;2462;51.456;7.248;2022-12-18T06:48:36;-2.70;99.90
2935;DHT22;2462;51.456;7.248;2022-12-18T06:51:02;-2.70;99.90
2935;DHT22;2462;51.456;7.248;2022-12-18T06:53:28;-2.70;99.90
2935;DHT22;2462;51.456;7.248;2022-12-18T06:56:06;-2.70;99.90
2935;DHT22;2462;51.456;7.248;2022-12-18T06:58:32;-2.70;99.90
2935;DHT22;2462;51.456;7.248;2022-12-18T07:01:01;-2.70;99.90
2935;DHT22;2462;51.456;7.248;2022-12-18T07:03:28;-2.70;99.90
2935;DHT22;2462;51.456;7.248;2022-12-18T07:05:54;-2.70;99.90
2935;DHT22;2462;51.456;7.248;2022-12-18T07:08:19;-2.70;99.90
2935;DHT22;2462;51.456;7.248;2022-12-18T07:10:45;-2.70;99.90
2935;DHT22;2462;51.456;7.248;2022-12-18T07:13:10;-2.70;99.90
2935;DHT22;2462;51.456;7.248;2022-12-18T07:15:36;-2.70;99.90
2935;DHT22;2462;51.456;7.248;2022-12-18T07:18:01;-2.70;99.90
2935;DHT22;2462;51.456;7.248;2022-12-18T07:20:27;-2.70;99.90
2935;DHT22;2462;51.456;7.248;2022-12-18T07:22:52;-2.80;99.90
2935;DHT22;2462;51.456;7.248;2022-12-18T07:25:18;-2.70;99.90
2935;DHT22;2462;51.456;7.248;2022-12-18T07:27:43;-2.80;99.90
2935;DHT22;2462;51.456;7.248;2022-12-18T07:30:09;-2.80;99.90
2935;DHT22;2462;51.456;7.248;2022-12-18T07:32:35;-2.80;99.90
2935;DHT22;2462;51.456;7.248;2022-12-18T07:35:00;-2.80;99.90
2935;DHT22;2462;51.456;7.248;2022-12-18T07:37:26;-2.80;99.90
2935;DHT22;2462;51.456;7.248;2022-12-18T07:39:51;-2.80;99.90
2935;DHT22;2462;51.456;7.248;2022-12-18T07:42:17;-2.80;99.90
2935;DHT22;2462;51.456;7.248;2022-12-18T07:45:01;-2.80;99.90
2935;DHT22;2462;51.456;7.248;2022-12-18T07:47:28;-2.80;99.90
2935;DHT22;2462;51.456;7.248;2022-12-18T07:49:54;-2.80;99.90
2935;DHT22;2462;51.456;7.248;2022-12-18T07:52:20;-2.80;99.90
2935;DHT22;2462;51.456;7.248;2022-12-18T07:54:46;-2.80;99.90
2935;DHT22;2462;51.456;7.248;2022-12-18T07:57:14;-2.80;99.90
2935;DHT22;2462;51.456;7.248;2022-12-18T07:59:40;-2.80;99.90
2935;DHT22;2462;51.456;7.248;2022-12-18T08:02:05;-2.80;99.90
2935;DHT22;2462;51.456;7.248;2022-12-18T08:04:34;-2.80;99.90
2935;DHT22;2462;51.456;7.248;2022-12-18T08:06:59;-2.80;99.90
2935;DHT22;2462;51.456;7.248;2022-12-18T08:09:25;-2.90;99.90
2935;DHT22;2462;51.456;7.248;2022-12-18T08:11:50;-2.80;99.90
2935;DHT22;2462;51.456;7.248;2022-12-18T08:14:16;-2.90;99.90
2935;DHT22;2462;51.456;7.248;2022-12-18T08:16:41;-2.80;99.90
2935;DHT22;2462;51.456;7.248;2022-12-18T08:19:07;-2.90;99.90
2935;DHT22;2462;51.456;7.248;2022-12-18T08:21:32;-2.90;99.90
2935;DHT22;2462;51.456;7.248;2022-12-18T08:23:59;-2.90;99.90
2935;DHT22;2462;51.456;7.248;2022-12-18T08:26:27;-2.90;99.90
2935;DHT22;2462;51.456;7.248;2022-12-18T08:28:54;-2.90;99.90
2935;DHT22;2462;51.456;7.248;2022-12-18T08:31:20;-2.90;99.90
2935;DHT22;2462;51.456;7.248;2022-12-18T08:33:49;-2.80;99.90
2935;DHT22;2462;51.456;7.248;2022-12-18T08:36:15;-2.90;99.90
2935;DHT22;2462;51.456;7.248;2022-12-18T08:38:41;-2.80;99.90
2935;DHT22;2462;51.456;7.248;2022-12-18T08:41:09;-2.80;99.90
2935;DHT22;2462;51.456;7.248;2022-12-18T08:43:35;-2.80;99.90
2935;DHT22;2462;51.456;7.248;2022-12-18T08:46:21;-2.80;99.90
2935;DHT22;2462;51.456;7.248;2022-12-18T08:48:47;-2.80;99.90
2935;DHT22;2462;51.456;7.248;2022-12-18T08:51:15;-2.80;99.90
2935;DHT22;2462;51.456;7.248;2022-12-18T08:53:41;-2.80;99.90
2935;DHT22;2462;51.456;7.248;2022-12-18T08:56:07;-2.80;99.90
2935;DHT22;2462;51.456;7.248;2022-12-18T08:58:33;-2.70;99.90
2935;DHT22;2462;51.456;7.248;2022-12-18T09:01:04;-2.80;99.90
2935;DHT22;2462;51.456;7.248;2022-12-18T09:03:30;-2.80;99.90
2935;DHT22;2462;51.456;7.248;2022-12-18T09:05:56;-2.80;99.90
2935;DHT22;2462;51.456;7.248;2022-12-18T09:08:22;-2.70;99.90
2935;DHT22;2462;51.456;7.248;2022-12-18T09:10:49;-2.70;99.90
2935;DHT22;2462;51.456;7.248;2022-12-18T09:13:16;-2.70;99.90
2935;DHT22;2462;51.456;7.248;2022-12-18T09:15:46;-2.60;99.90
2935;DHT22;2462;51.456;7.248;2022-12-18T09:18:13;-2.60;99.90
2935;DHT22;2462;51.456;7.248;2022-12-18T09:20:39;-2.60;99.90
2935;DHT22;2462;51.456;7.248;2022-12-18T09:23:05;-2.30;99.90
2935;DHT22;2462;51.456;7.248;2022-12-18T09:25:31;-2.50;99.90
2935;DHT22;2462;51.456;7.248;2022-12-18T09:27:59;-2.50;99.90
2935;DHT22;2462;51.456;7.248;2022-12-18T09:30:25;-2.40;99.90
2935;DHT22;2462;51.456;7.248;2022-12-18T09:32:51;-2.30;99.90
2935;DHT22;2462;51.456;7.248;2022-12-18T09:35:16;-2.30;99.90
2935;DHT22;2462;51.456;7.248;2022-12-18T09:37:42;-2.30;99.90
2935;DHT22;2462;51.456;7.248;2022-12-18T09:40:14;-2.30;99.90
2935;DHT22;2462;51.456;7.248;2022-12-18T09:42:40;-2.20;99.90
2935;DHT22;2462;51.456;7.248;2022-12-18T09:45:13;-2.20;99.90
2935;DHT22;2462;51.456;7.248;2022-12-18T09:47:41;-2.10;99.90
2935;DHT22;2462;51.456;7.248;2022-12-18T09:50:26;-2.10;99.90
2935;DHT22;2462;51.456;7.248;2022-12-18T09:52:55;-2.10;99.90
2935;DHT22;2462;51.456;7.248;2022-12-18T09:57:56;-2.00;99.90
2935;DHT22;2462;51.456;7.248;2022-12-18T10:00:24;-2.00;99.90
2935;DHT22;2462;51.456;7.248;2022-12-18T10:02:59;-1.90;99.90
2935;DHT22;2462;51.456;7.248;2022-12-18T10:08:44;-1.80;99.90
2935;DHT22;2462;51.456;7.248;2022-12-18T10:13:57;-1.70;99.90
2935;DHT22;2462;51.456;7.248;2022-12-18T10:19:43;-1.60;99.90
2935;DHT22;2462;51.456;7.248;2022-12-18T10:22:40;-1.60;99.90
2935;DHT22;2462;51.456;7.248;2022-12-18T10:25:46;-1.50;99.90
2935;DHT22;2462;51.456;7.248;2022-12-18T10:28:16;-1.50;99.90
2935;DHT22;2462;51.456;7.248;2022-12-18T10:30:44;-1.40;99.90
2935;DHT22;2462;51.456;7.248;2022-12-18T10:33:19;-1.40;99.90
2935;DHT22;2462;51.456;7.248;2022-12-18T10:35:47;-1.30;99.90
2935;DHT22;2462;51.456;7.248;2022-12-18T10:40:52;-1.20;99.90
2935;DHT22;2462;51.456;7.248;2022-12-18T10:43:35;-1.20;99.90
2935;DHT22;2462;51.456;7.248;2022-12-18T10:46:12;-1.20;99.90
2935;DHT22;2462;51.456;7.248;2022-12-18T10:48:40;-1.10;99.90
2935;DHT22;2462;51.456;7.248;2022-12-18T10:54:00;-1.00;99.90
2935;DHT22;2462;51.456;7.248;2022-12-18T10:56:28;-1.00;99.90
2935;DHT22;2462;51.456;7.248;2022-12-18T10:59:00;-1.00;99.90
2935;DHT22;2462;51.456;7.248;2022-12-18T11:01:27;-0.90;99.90
2935;DHT22;2462;51.456;7.248;2022-12-18T11:06:21;-0.90;99.90
2935;DHT22;2462;51.456;7.248;2022-12-18T11:11:27;-0.80;99.90
2935;DHT22;2462;51.456;7.248;2022-12-18T11:14:14;-0.80;99.90
2935;DHT22;2462;51.456;7.248;2022-12-18T11:16:44;-0.70;99.90
2935;DHT22;2462;51.456;7.248;2022-12-18T11:19:38;-0.70;99.90
2935;DHT22;2462;51.456;7.248;2022-12-18T11:22:23;-0.70;99.90
2935;DHT22;2462;51.456;7.248;2022-12-18T11:25:04;-0.60;99.90
2935;DHT22;2462;51.456;7.248;2022-12-18T11:27:31;-0.60;99.90
2935;DHT22;2462;51.456;7.248;2022-12-18T11:30:24;-0.60;99.90
2935;DHT22;2462;51.456;7.248;2022-12-18T11:33:06;-0.60;99.90
2935;DHT22;2462;51.456;7.248;2022-12-18T11:35:47;-0.50;99.90
2935;DHT22;2462;51.456;7.248;2022-12-18T11:38:23;-0.50;99.90
2935;DHT22;2462;51.456;7.248;2022-12-18T11:40:58;-0.50;99.90
2935;DHT22;2462;51.456;7.248;2022-12-18T11:43:41;-0.50;99.90
2935;DHT22;2462;51.456;7.248;2022-12-18T11:46:13;-0.50;99.90
2935;DHT22;2462;51.456;7.248;2022-12-18T11:48:49;-0.40;99.90
2935;DHT22;2462;51.456;7.248;2022-12-18T11:51:27;-0.40;99.90
2935;DHT22;2462;51.456;7.248;2022-12-18T11:53:55;-0.40;99.90
2935;DHT22;2462;51.456;7.248;2022-12-18T11:56:34;-0.30;99.90
2935;DHT22;2462;51.456;7.248;2022-12-18T11:59:33;-0.30;99.90
2935;DHT22;2462;51.456;7.248;2022-12-18T12:13:19;-0.20;99.90
2935;DHT22;2462;51.456;7.248;2022-12-18T12:15:56;-0.10;99.90
2935;DHT22;2462;51.456;7.248;2022-12-18T12:21:21;-0.10;99.90
2935;DHT22;2462;51.456;7.248;2022-12-18T12:23:59;-0.10;99.90
2935;DHT22;2462;51.456;7.248;2022-12-18T12:40:06;0.00;99.90
2935;DHT22;2462;51.456;7.248;2022-12-18T12:42:36;0.10;99.90
2935;DHT22;2462;51.456;7.248;2022-12-18T12:45:36;0.10;99.90
2935;DHT22;2462;51.456;7.248;2022-12-18T12:48:02;0.10;99.90
2935;DHT22;2462;51.456;7.248;2022-12-18T12:50:33;0.10;99.90
2935;DHT22;2462;51.456;7.248;2022-12-18T12:53:01;0.10;99.90
2935;DHT22;2462;51.456;7.248;2022-12-18T12:55:31;0.10;99.90
2935;DHT22;2462;51.456;7.248;2022-12-18T12:58:08;0.20;99.90
2935;DHT22;2462;51.456;7.248;2022-12-18T13:00:49;0.10;99.90
2935;DHT22;2462;51.456;7.248;2022-12-18T13:05:56;0.20;99.90
2935;DHT22;2462;51.456;7.248;2022-12-18T13:08:26;0.20;99.90
2935;DHT22;2462;51.456;7.248;2022-12-18T13:10:53;0.20;99.90
2935;DHT22;2462;51.456;7.248;2022-12-18T13:13:54;0.20;99.90
2935;DHT22;2462;51.456;7.248;2022-12-18T13:16:24;0.20;99.90
2935;DHT22;2462;51.456;7.248;2022-12-18T13:18:51;0.20;99.90
2935;DHT22;2462;51.456;7.248;2022-12-18T13:21:24;0.20;99.90
2935;DHT22;2462;51.456;7.248;2022-12-18T13:23:52;0.20;99.90
2935;DHT22;2462;51.456;7.248;2022-12-18T13:33:46;0.20;99.90
2935;DHT22;2462;51.456;7.248;2022-12-18T13:36:28;0.20;99.90
2935;DHT22;2462;51.456;7.248;2022-12-18T13:41:41;0.20;99.90
2935;DHT22;2462;51.456;7.248;2022-12-18T13:44:33;0.20;99.90
2935;DHT22;2462;51.456;7.248;2022-12-18T13:47:02;0.20;99.90
2935;DHT22;2462;51.456;7.248;2022-12-18T13:49:38;0.30;99.90
2935;DHT22;2462;51.456;7.248;2022-12-18T13:52:17;0.30;99.90
2935;DHT22;2462;51.456;7.248;2022-12-18T13:54:47;0.30;99.90
2935;DHT22;2462;51.456;7.248;2022-12-18T13:57:35;0.20;99.90
2935;DHT22;2462;51.456;7.248;2022-12-18T14:02:47;0.20;99.90
2935;DHT22;2462;51.456;7.248;2022-12-18T14:05:22;0.20;99.90
2935;DHT22;2462;51.456;7.248;2022-12-18T14:07:49;0.30;99.90
2935;DHT22;2462;51.456;7.248;2022-12-18T14:10:15;0.20;99.90
2935;DHT22;2462;51.456;7.248;2022-12-18T14:12:46;0.20;99.90
2935;DHT22;2462;51.456;7.248;2022-12-18T14:15:24;0.20;99.90
2935;DHT22;2462;51.456;7.248;2022-12-18T14:18:18;0.20;99.90
2935;DHT22;2462;51.456;7.248;2022-12-18T14:20:45;0.20;99.90
2935;DHT22;2462;51.456;7.248;2022-12-18T14:25:54;0.20;99.90
2935;DHT22;2462;51.456;7.248;2022-12-18T14:28:19;0.20;99.90
2935;DHT22;2462;51.456;7.248;2022-12-18T14:30:47;0.20;99.90
2935;DHT22;2462;51.456;7.248;2022-12-18T14:33:15;0.20;99.90
2935;DHT22;2462;51.456;7.248;2022-12-18T14:35:58;0.20;99.90
2935;DHT22;2462;51.456;7.248;2022-12-18T14:41:13;0.20;99.90
2935;DHT22;2462;51.456;7.248;2022-12-18T14:43:41;0.20;99.90
2935;DHT22;2462;51.456;7.248;2022-12-18T14:46:27;0.20;99.90
2935;DHT22;2462;51.456;7.248;2022-12-18T14:48:54;0.20;99.90
2935;DHT22;2462;51.456;7.248;2022-12-18T14:53:49;0.20;99.90
2935;DHT22;2462;51.456;7.248;2022-12-18T14:56:29;0.20;99.90
2935;DHT22;2462;51.456;7.248;2022-12-18T14:58:58;0.20;99.90
2935;DHT22;2462;51.456;7.248;2022-12-18T15:01:34;0.20;99.90
2935;DHT22;2462;51.456;7.248;2022-12-18T15:04:03;0.20;99.90
2935;DHT22;2462;51.456;7.248;2022-12-18T15:08:58;0.20;99.90
2935;DHT22;2462;51.456;7.248;2022-12-18T15:11:34;0.10;99.90
2935;DHT22;2462;51.456;7.248;2022-12-18T15:14:21;0.10;99.90
2935;DHT22;2462;51.456;7.248;2022-12-18T15:16:54;0.10;99.90
2935;DHT22;2462;51.456;7.248;2022-12-18T15:19:21;0.10;99.90
2935;DHT22;2462;51.456;7.248;2022-12-18T15:21:47;0.10;99.90
2935;DHT22;2462;51.456;7.248;2022-12-18T15:24:27;0.10;99.90
2935;DHT22;2462;51.456;7.248;2022-12-18T15:26:55;0.10;99.90
2935;DHT22;2462;51.456;7.248;2022-12-18T15:29:22;0.10;99.90
2935;DHT22;2462;51.456;7.248;2022-12-18T15:32:19;0.10;99.90
2935;DHT22;2462;51.456;7.248;2022-12-18T15:34:44;0.10;99.90
2935;DHT22;2462;51.456;7.248;2022-12-18T15:37:10;0.10;99.90
2935;DHT22;2462;51.456;7.248;2022-12-18T15:39:35;0.10;99.90
2935;DHT22;2462;51.456;7.248;2022-12-18T15:42:01;0.10;99.90
2935;DHT22;2462;51.456;7.248;2022-12-18T15:44:45;0.10;99.90
2935;DHT22;2462;51.456;7.248;2022-12-18T15:47:12;0.10;99.90
2935;DHT22;2462;51.456;7.248;2022-12-18T15:49:38;0.10;99.90
2935;DHT22;2462;51.456;7.248;2022-12-18T15:52:04;0.10;99.90
2935;DHT22;2462;51.456;7.248;2022-12-18T15:54:30;0.10;99.90
2935;DHT22;2462;51.456;7.248;2022-12-18T15:57:14;0.10;99.90
2935;DHT22;2462;51.456;7.248;2022-12-18T15:59:53;0.10;99.90
2935;DHT22;2462;51.456;7.248;2022-12-18T16:02:20;0.10;99.90
2935;DHT22;2462;51.456;7.248;2022-12-18T16:04:46;0.10;99.90
2935;DHT22;2462;51.456;7.248;2022-12-18T16:07:12;0.10;99.90
2935;DHT22;2462;51.456;7.248;2022-12-18T16:09:37;0.10;99.90
2935;DHT22;2462;51.456;7.248;2022-12-18T16:12:04;0.00;99.90
2935;DHT22;2462;51.456;7.248;2022-12-18T16:14:31;0.10;99.90
2935;DHT22;2462;51.456;7.248;2022-12-18T16:16:59;0.10;99.90
2935;DHT22;2462;51.456;7.248;2022-12-18T16:19:25;0.00;99.90
2935;DHT22;2462;51.456;7.248;2022-12-18T16:21:52;0.10;99.90
2935;DHT22;2462;51.456;7.248;2022-12-18T16:24:20;0.10;99.90
2935;DHT22;2462;51.456;7.248;2022-12-18T16:26:48;0.00;99.90
2935;DHT22;2462;51.456;7.248;2022-12-18T16:29:14;0.10;99.90
2935;DHT22;2462;51.456;7.248;2022-12-18T16:31:40;0.10;99.90
2935;DHT22;2462;51.456;7.248;2022-12-18T16:34:30;0.10;99.90
2935;DHT22;2462;51.456;7.248;2022-12-18T16:37:04;0.10;99.90
2935;DHT22;2462;51.456;7.248;2022-12-18T16:39:30;0.10;99.90
2935;DHT22;2462;51.456;7.248;2022-12-18T16:41:57;0.10;99.90
2935;DHT22;2462;51.456;7.248;2022-12-18T16:44:22;0.10;99.90
2935;DHT22;2462;51.456;7.248;2022-12-18T16:46:48;0.10;99.90
2935;DHT22;2462;51.456;7.248;2022-12-18T16:49:15;0.10;99.90
2935;DHT22;2462;51.456;7.248;2022-12-18T16:51:42;0.10;99.90
2935;DHT22;2462;51.456;7.248;2022-12-18T16:54:08;0.10;99.90
2935;DHT22;2462;51.456;7.248;2022-12-18T16:56:34;0.10;99.90
2935;DHT22;2462;51.456;7.248;2022-12-18T16:59:00;0.10;99.90
2935;DHT22;2462;51.456;7.248;2022-12-18T17:01:28;0.10;99.90
2935;DHT22;2462;51.456;7.248;2022-12-18T17:03:57;0.10;99.90
2935;DHT22;2462;51.456;7.248;2022-12-18T17:06:24;0.00;99.90
2935;DHT22;2462;51.456;7.248;2022-12-18T17:09:01;0.10;99.90
2935;DHT22;2462;51.456;7.248;2022-12-18T17:11:28;0.10;99.90
2935;DHT22;2462;51.456;7.248;2022-12-18T17:13:54;0.10;99.90
2935;DHT22;2462;51.456;7.248;2022-12-18T17:16:21;0.10;99.90
2935;DHT22;2462;51.456;7.248;2022-12-18T17:18:47;0.10;99.90
2935;DHT22;2462;51.456;7.248;2022-12-18T17:21:13;0.10;99.90
2935;DHT22;2462;51.456;7.248;2022-12-18T17:23:43;0.10;99.90
2935;DHT22;2462;51.456;7.248;2022-12-18T17:26:09;0.10;99.90
2935;DHT22;2462;51.456;7.248;2022-12-18T17:28:36;0.10;99.90
2935;DHT22;2462;51.456;7.248;2022-12-18T17:31:12;0.10;99.90
2935;DHT22;2462;51.456;7.248;2022-12-18T17:33:39;0.00;99.90
2935;DHT22;2462;51.456;7.248;2022-12-18T17:36:05;0.10;99.90
2935;DHT22;2462;51.456;7.248;2022-12-18T17:38:30;0.00;99.90
2935;DHT22;2462;51.456;7.248;2022-12-18T17:41:00;0.10;99.90
2935;DHT22;2462;51.456;7.248;2022-12-18T17:43:26;0.10;99.90
2935;DHT22;2462;51.456;7.248;2022-12-18T17:45:52;0.10;99.90
2935;DHT22;2462;51.456;7.248;2022-12-18T17:48:17;0.10;99.90
2935;DHT22;2462;51.456;7.248;2022-12-18T17:50:43;0.10;99.90
2935;DHT22;2462;51.456;7.248;2022-12-18T17:53:10;0.10;99.90
2935;DHT22;2462;51.456;7.248;2022-12-18T17:55:35;0.10;99.90
2935;DHT22;2462;51.456;7.248;2022-12-18T17:58:01;0.10;99.90
2935;DHT22;2462;51.456;7.248;2022-12-18T18:00:26;0.10;99.90
2935;DHT22;2462;51.456;7.248;2022-12-18T18:02:52;0.10;99.90